Time;durP1;ratioP1;P1;durP2;ratioP2;P2;SDS_P1;SDS_P2;PMS_P1;PMS_P2;Temp;Humidity;BMP_temperature;BMP_pressure;BME280_temperature;BME280_humidity;BME280_pressure;Samples;Min_cycle;Max_cycle;Signal;HPM_P1;HPM_P2
2023/03/21 00:00:29;;;;;;;11.50;3.90;;;;;;;;;;4945712;29;20027;-94
2023/03/21 00:02:57;;;;;;;9.68;3.30;;;;;;;;;;4949969;28;20051;-95
2023/03/21 00:05:22;;;;;;;11.70;3.67;;;;;;;;;;4953827;29;20023;-94
2023/03/21 00:07:47;;;;;;;7.82;3.53;;;;;;;;;;4961560;29;20094;-95
2023/03/21 00:10:13;;;;;;;7.35;3.33;;;;;;;;;;4958983;28;20023;-94
2023/03/21 00:12:39;;;;;;;9.00;2.95;;;;;;;;;;4940365;28;20055;-95
2023/03/21 00:15:05;;;;;;;9.60;3.30;;;;;;;;;;4948231;29;20035;-96
2023/03/21 00:17:31;;;;;;;5.15;2.65;;;;;;;;;;4958412;29;20023;-95
2023/03/21 00:19:56;;;;;;;8.05;3.13;;;;;;;;;;4950695;28;20019;-95
2023/03/21 00:22:22;;;;;;;6.95;3.30;;;;;;;;;;4952583;29;20035;-95
2023/03/21 00:24:51;;;;;;;7.38;3.25;;;;;;;;;;4957490;29;20027;-95
2023/03/21 00:27:18;;;;;;;7.25;2.78;;;;;;;;;;4958030;28;20059;-95
2023/03/21 00:32:34;;;;;;;9.20;3.03;;;;;;;;;;4958910;28;20035;-95
2023/03/21 00:34:59;;;;;;;19.23;4.72;;;;;;;;;;4957672;29;20027;-96
2023/03/21 00:37:28;;;;;;;6.88;2.65;;;;;;;;;;4959500;29;20042;-94
2023/03/21 00:39:53;;;;;;;8.38;3.03;;;;;;;;;;4957296;29;20126;-94
2023/03/21 00:42:19;;;;;;;8.25;3.08;;;;;;;;;;4952017;29;20594;-95
2023/03/21 00:44:44;;;;;;;5.28;2.78;;;;;;;;;;4949479;29;20023;-95
2023/03/21 00:47:10;;;;;;;7.68;2.72;;;;;;;;;;4940656;28;20023;-96
2023/03/21 00:49:37;;;;;;;10.65;2.88;;;;;;;;;;4947279;29;20019;-94
2023/03/21 00:52:05;;;;;;;9.00;2.92;;;;;;;;;;4956798;28;20031;-95
2023/03/21 00:54:31;;;;;;;6.80;2.70;;;;;;;;;;4957497;29;20019;-95
2023/03/21 00:56:56;;;;;;;8.02;2.45;;;;;;;;;;4958130;29;20436;-95
2023/03/21 00:59:22;;;;;;;7.03;3.50;;;;;;;;;;4958383;29;20110;-95
2023/03/21 01:01:52;;;;;;;5.75;2.70;;;;;;;;;;4956727;28;20472;-96
2023/03/21 01:04:18;;;;;;;11.15;3.53;;;;;;;;;;4956956;28;20038;-95
2023/03/21 01:06:43;;;;;;;10.55;3.20;;;;;;;;;;4959172;29;20027;-95
2023/03/21 01:09:20;;;;;;;10.20;2.92;;;;;;;;;;4959399;29;20031;-96
2023/03/21 01:11:45;;;;;;;6.65;2.75;;;;;;;;;;4959241;29;20042;-96
2023/03/21 01:14:11;;;;;;;8.80;2.97;;;;;;;;;;4960587;29;20019;-96
2023/03/21 01:16:40;;;;;;;9.80;3.63;;;;;;;;;;4960523;29;20035;-95
2023/03/21 01:19:06;;;;;;;11.48;3.60;;;;;;;;;;4944377;29;20023;-95
2023/03/21 01:21:33;;;;;;;9.15;3.35;;;;;;;;;;4961328;29;20481;-96
2023/03/21 01:24:01;;;;;;;7.05;2.72;;;;;;;;;;4954362;28;20039;-96
2023/03/21 01:26:28;;;;;;;13.05;3.53;;;;;;;;;;4943704;28;20019;-95
2023/03/21 01:28:59;;;;;;;10.88;2.58;;;;;;;;;;4959961;28;20019;-95
2023/03/21 01:31:33;;;;;;;7.47;3.22;;;;;;;;;;4943028;29;20485;-94
2023/03/21 01:33:58;;;;;;;15.45;4.10;;;;;;;;;;4948783;29;20030;-95
2023/03/21 01:36:31;;;;;;;7.22;3.15;;;;;;;;;;4961125;29;20055;-96
2023/03/21 01:38:57;;;;;;;11.90;3.67;;;;;;;;;;4937191;29;20035;-95
2023/03/21 01:41:25;;;;;;;10.73;4.03;;;;;;;;;;4949811;29;20027;-95
2023/03/21 01:43:52;;;;;;;11.70;3.35;;;;;;;;;;4957325;28;20019;-95
2023/03/21 01:46:25;;;;;;;10.80;3.00;;;;;;;;;;4957606;29;20031;-95
2023/03/21 01:48:56;;;;;;;10.73;2.60;;;;;;;;;;4959238;28;20067;-95
2023/03/21 01:51:25;;;;;;;5.80;2.10;;;;;;;;;;4962892;28;20023;-95
2023/03/21 01:53:59;;;;;;;8.90;3.20;;;;;;;;;;4959315;28;20113;-95
2023/03/21 01:56:33;;;;;;;9.13;3.30;;;;;;;;;;4957514;29;20019;-96
2023/03/21 01:59:02;;;;;;;10.23;3.25;;;;;;;;;;4957849;29;20082;-94
2023/03/21 02:01:30;;;;;;;8.90;3.25;;;;;;;;;;4956824;28;20067;-95
2023/03/21 02:03:56;;;;;;;8.63;3.70;;;;;;;;;;4956938;28;20122;-94
2023/03/21 02:06:42;;;;;;;7.68;3.22;;;;;;;;;;4957853;28;20027;-96
2023/03/21 02:09:10;;;;;;;6.55;2.90;;;;;;;;;;4942711;28;20082;-95
2023/03/21 02:11:38;;;;;;;11.20;4.10;;;;;;;;;;4956734;28;20015;-94
2023/03/21 02:14:04;;;;;;;12.02;4.10;;;;;;;;;;4955813;28;20023;-95
2023/03/21 02:16:58;;;;;;;11.15;3.30;;;;;;;;;;4956787;29;20586;-94
2023/03/21 02:19:27;;;;;;;10.98;3.80;;;;;;;;;;4946118;28;20110;-95
2023/03/21 02:21:52;;;;;;;8.40;2.72;;;;;;;;;;4960175;28;20034;-95
2023/03/21 02:24:24;;;;;;;8.35;3.05;;;;;;;;;;4949043;29;20028;-95
2023/03/21 02:27:05;;;;;;;10.63;2.90;;;;;;;;;;4971556;28;20028;-95
2023/03/21 02:29:51;;;;;;;6.57;3.28;;;;;;;;;;4982656;28;20037;-95
2023/03/21 02:32:35;;;;;;;10.27;3.70;;;;;;;;;;4956558;28;20031;-94
2023/03/21 02:35:27;;;;;;;9.43;3.20;;;;;;;;;;4956199;28;20031;-96
2023/03/21 02:38:10;;;;;;;6.25;3.00;;;;;;;;;;4957190;29;20050;-96
2023/03/21 02:40:42;;;;;;;14.02;2.92;;;;;;;;;;4957165;29;20035;-95
2023/03/21 02:43:07;;;;;;;;;;;;;;;;;;4957206;28;20306;-95
2023/03/21 02:45:53;;;;;;;11.50;2.85;;;;;;;;;;4957446;28;19917;-96
2023/03/21 02:48:23;;;;;;;8.65;3.53;;;;;;;;;;4958019;28;20024;-95
2023/03/21 02:50:50;;;;;;;13.52;3.75;;;;;;;;;;4955735;28;20047;-95
2023/03/21 02:53:18;;;;;;;8.80;3.55;;;;;;;;;;4942408;29;20106;-95
2023/03/21 02:55:44;;;;;;;11.57;3.20;;;;;;;;;;4952978;29;20091;-95
2023/03/21 02:58:17;;;;;;;9.52;3.25;;;;;;;;;;4956214;29;20617;-94
2023/03/21 03:00:43;;;;;;;9.98;4.03;;;;;;;;;;4957428;28;20122;-94
2023/03/21 03:03:09;;;;;;;9.38;3.90;;;;;;;;;;4955409;29;20082;-94
2023/03/21 03:05:41;;;;;;;11.25;4.32;;;;;;;;;;4955296;29;20027;-94
2023/03/21 03:08:18;;;;;;;11.70;3.80;;;;;;;;;;4955436;29;20028;-96
2023/03/21 03:11:09;;;;;;;13.05;4.32;;;;;;;;;;4954914;29;20461;-95
2023/03/21 03:13:37;;;;;;;10.40;4.03;;;;;;;;;;4955572;29;20038;-94
2023/03/21 03:16:14;;;;;;;12.57;3.45;;;;;;;;;;4955414;28;20097;-95
2023/03/21 03:18:48;;;;;;;15.25;4.57;;;;;;;;;;4955121;28;20023;-94
2023/03/21 03:21:18;;;;;;;11.82;4.28;;;;;;;;;;4942174;29;20327;-94
2023/03/21 03:23:49;;;;;;;18.45;4.53;;;;;;;;;;4958295;28;20050;-95
2023/03/21 03:26:18;;;;;;;11.90;4.60;;;;;;;;;;4961023;28;20492;-94
2023/03/21 03:28:51;;;;;;;13.20;4.70;;;;;;;;;;4953312;28;20028;-94
2023/03/21 03:31:20;;;;;;;16.08;4.60;;;;;;;;;;4941704;29;20519;-95
2023/03/21 03:33:51;;;;;;;13.20;4.93;;;;;;;;;;4940399;29;20027;-96
2023/03/21 03:36:28;;;;;;;;;;;;;;;;;;;;;
2023/03/21 03:38:54;;;;;;;19.55;5.05;;;;;;;;;;4965460;29;20095;-95
2023/03/21 03:41:24;;;;;;;9.82;4.50;;;;;;;;;;4959368;29;20134;-95
2023/03/21 03:43:52;;;;;;;17.92;6.28;;;;;;;;;;4947990;29;20012;-95
2023/03/21 03:46:24;;;;;;;5.40;3.03;;;;;;;;;;4959056;28;20023;-95
2023/03/21 03:48:55;;;;;;;4.15;2.10;;;;;;;;;;4959735;29;20091;-95
2023/03/21 03:51:27;;;;;;;9.27;3.05;;;;;;;;;;4962537;28;20015;-94
2023/03/21 03:53:56;;;;;;;6.07;2.45;;;;;;;;;;4960621;28;20023;-96
2023/03/21 03:56:22;;;;;;;12.00;3.75;;;;;;;;;;4957299;29;20023;-95
2023/03/21 03:58:50;;;;;;;6.53;2.53;;;;;;;;;;4958586;29;20024;-94
2023/03/21 04:01:18;;;;;;;6.25;2.85;;;;;;;;;;4959289;29;20532;-96
2023/03/21 04:03:46;;;;;;;10.57;3.15;;;;;;;;;;4949521;28;20037;-96
2023/03/21 04:06:15;;;;;;;6.97;2.67;;;;;;;;;;4961650;28;20090;-95
2023/03/21 04:08:40;;;;;;;9.68;2.55;;;;;;;;;;4965067;29;20031;-96
2023/03/21 04:11:09;;;;;;;10.70;2.78;;;;;;;;;;4961305;29;20470;-95
2023/03/21 04:13:34;;;;;;;6.60;2.67;;;;;;;;;;4951405;29;20535;-95
2023/03/21 04:16:02;;;;;;;4.63;1.77;;;;;;;;;;4958134;29;20031;-94
2023/03/21 04:18:28;;;;;;;5.15;2.50;;;;;;;;;;4958306;28;20447;-96
2023/03/21 04:20:54;;;;;;;8.57;2.65;;;;;;;;;;4958349;29;20035;-94
2023/03/21 04:23:19;;;;;;;4.93;1.88;;;;;;;;;;4957904;28;20111;-95
2023/03/21 04:25:49;;;;;;;7.55;2.88;;;;;;;;;;4956163;28;20106;-96
2023/03/21 04:28:15;;;;;;;6.22;2.60;;;;;;;;;;4953916;28;20082;-95
2023/03/21 04:30:40;;;;;;;10.15;2.53;;;;;;;;;;4958126;29;20031;-94
2023/03/21 04:33:05;;;;;;;9.70;2.60;;;;;;;;;;4958025;28;20418;-94
2023/03/21 04:35:31;;;;;;;7.10;2.58;;;;;;;;;;4958493;28;20027;-94
2023/03/21 04:37:56;;;;;;;8.45;2.88;;;;;;;;;;4957864;28;20523;-94
2023/03/21 04:40:24;;;;;;;10.27;2.60;;;;;;;;;;4960383;29;20544;-95
2023/03/21 04:42:52;;;;;;;8.65;2.53;;;;;;;;;;4970173;28;20036;-95
2023/03/21 04:45:18;;;;;;;7.47;2.00;;;;;;;;;;4943682;28;20027;-95
2023/03/21 04:47:44;;;;;;;7.55;2.45;;;;;;;;;;4957922;29;20058;-94
2023/03/21 04:50:17;;;;;;;5.82;2.25;;;;;;;;;;4957871;29;20031;-95
2023/03/21 04:52:42;;;;;;;4.13;2.15;;;;;;;;;;4957229;28;20341;-94
2023/03/21 04:55:10;;;;;;;9.93;1.83;;;;;;;;;;4939705;29;20035;-96
2023/03/21 04:57:40;;;;;;;5.25;1.83;;;;;;;;;;4957611;29;20027;-94
2023/03/21 05:00:08;;;;;;;7.40;2.15;;;;;;;;;;4958141;29;20027;-94
2023/03/21 05:02:34;;;;;;;6.20;1.98;;;;;;;;;;4964410;28;20117;-95
2023/03/21 05:04:59;;;;;;;4.95;1.70;;;;;;;;;;4967560;28;20030;-95
